createdAt,value
2022-10-28T00:00:03.710Z,-35
2022-10-28T00:01:09.984Z,-37
2022-10-28T00:02:16.249Z,-37
2022-10-28T00:03:22.527Z,-36
2022-10-28T00:04:27.858Z,-36
2022-10-28T00:05:33.115Z,-37
2022-10-28T00:06:39.391Z,-37
2022-10-28T00:07:44.691Z,-38
2022-10-28T00:08:49.972Z,-37
2022-10-28T00:09:56.249Z,-37
2022-10-28T00:11:02.520Z,-37
2022-10-28T00:12:08.797Z,-37
2022-10-28T00:13:15.077Z,-37
2022-10-28T00:14:21.340Z,-39
2022-10-28T00:15:27.618Z,-37
2022-10-28T00:16:33.878Z,-40
2022-10-28T00:17:40.149Z,-38
2022-10-28T00:18:46.429Z,-37
2022-10-28T00:19:52.703Z,-37
2022-10-28T00:20:58.962Z,-37
2022-10-28T00:22:05.239Z,-37
2022-10-28T00:23:10.527Z,-37
2022-10-28T00:24:16.796Z,-37
2022-10-28T00:25:23.071Z,-37
2022-10-28T00:26:29.346Z,-38
2022-10-28T00:27:35.616Z,-37
2022-10-28T00:28:41.887Z,-37
2022-10-28T00:29:48.163Z,-37
2022-10-28T00:30:54.444Z,-37
2022-10-28T00:32:00.704Z,-37
2022-10-28T00:33:06.971Z,-37
2022-10-28T00:34:13.242Z,-37
2022-10-28T00:35:18.546Z,-37
2022-10-28T00:36:23.869Z,-37
2022-10-28T00:37:29.162Z,-36
2022-10-28T00:38:34.428Z,-38
2022-10-28T00:39:40.693Z,-38
2022-10-28T00:40:46.971Z,-36
2022-10-28T00:41:53.318Z,-37
2022-10-28T00:42:59.513Z,-37
2022-10-28T00:44:05.782Z,-40
2022-10-28T00:45:12.059Z,-37
2022-10-28T00:46:18.331Z,-38
2022-10-28T00:47:24.628Z,-37
2022-10-28T00:48:30.875Z,-38
2022-10-28T00:49:37.168Z,-38
2022-10-28T00:50:43.414Z,-37
2022-10-28T00:51:49.693Z,-38
2022-10-28T00:52:54.978Z,-37
2022-10-28T00:54:01.256Z,-38
2022-10-28T00:55:07.516Z,-38
2022-10-28T00:56:13.795Z,-37
2022-10-28T00:57:20.066Z,-40
2022-10-28T00:58:26.337Z,-39
2022-10-28T00:59:32.614Z,-38
2022-10-28T01:00:38.888Z,-38
2022-10-28T01:01:45.159Z,-37
2022-10-28T01:02:50.452Z,-34
2022-10-28T01:03:55.749Z,-39
2022-10-28T01:05:01.052Z,-38
2022-10-28T01:06:06.342Z,-38
2022-10-28T01:07:12.605Z,-39
2022-10-28T01:08:18.874Z,-38
2022-10-28T01:09:25.144Z,-38
2022-10-28T01:10:31.425Z,-38
2022-10-28T01:11:37.722Z,-39
2022-10-28T01:12:43.969Z,-37
2022-10-28T01:13:50.247Z,-39
2022-10-28T01:14:56.511Z,-39
2022-10-28T01:16:02.791Z,-38
2022-10-28T01:17:09.066Z,-38
2022-10-28T01:18:15.324Z,-38
2022-10-28T01:19:21.657Z,-37
2022-10-28T01:20:26.896Z,-37
2022-10-28T01:21:33.164Z,-38
2022-10-28T01:22:39.431Z,-37
2022-10-28T01:23:45.760Z,-38
2022-10-28T01:24:51.997Z,-38
2022-10-28T01:25:58.250Z,-38
2022-10-28T01:27:04.583Z,-38
2022-10-28T01:28:10.791Z,-38
2022-10-28T01:29:17.089Z,-39
2022-10-28T01:30:23.335Z,-37
2022-10-28T01:31:29.610Z,-38
2022-10-28T01:32:35.884Z,-37
2022-10-28T01:33:42.153Z,-38
2022-10-28T01:34:47.470Z,-38
2022-10-28T01:35:53.718Z,-35
2022-10-28T01:37:00.047Z,-38
2022-10-28T01:38:05.301Z,-39
2022-10-28T01:39:10.597Z,-39
2022-10-28T01:40:15.874Z,-39
2022-10-28T01:41:21.163Z,-39
2022-10-28T01:42:27.434Z,-39
2022-10-28T01:43:33.721Z,-38
2022-10-28T01:44:39.983Z,-37
2022-10-28T01:45:46.250Z,-39
2022-10-28T01:46:52.524Z,-40
2022-10-28T01:47:58.804Z,-38
2022-10-28T01:49:05.080Z,-39
2022-10-28T01:50:11.350Z,-38
2022-10-28T01:51:17.616Z,-39
2022-10-28T01:52:23.886Z,-38
2022-10-28T01:53:30.163Z,-39
2022-10-28T01:54:36.434Z,-38
2022-10-28T01:55:41.717Z,-38
2022-10-28T01:56:47.999Z,-40
2022-10-28T01:57:54.268Z,-38
2022-10-28T01:59:00.536Z,-38
2022-10-28T02:00:06.872Z,-38
2022-10-28T02:01:13.087Z,-38
2022-10-28T02:02:19.351Z,-37
2022-10-28T02:03:24.673Z,-39
2022-10-28T02:04:29.956Z,-40
2022-10-28T02:05:35.240Z,-38
2022-10-28T02:06:40.555Z,-39
2022-10-28T02:07:46.797Z,-38
2022-10-28T02:08:53.071Z,-40
2022-10-28T02:09:59.344Z,-39
2022-10-28T02:11:05.622Z,-39
2022-10-28T02:12:11.884Z,-39
2022-10-28T02:13:18.173Z,-39
2022-10-28T02:14:24.440Z,-39
2022-10-28T02:15:30.708Z,-39
2022-10-28T02:16:36.984Z,-38
2022-10-28T02:17:43.257Z,-40
2022-10-28T02:18:49.522Z,-39
2022-10-28T02:19:55.794Z,-39
2022-10-28T02:21:01.080Z,-40
2022-10-28T02:22:07.355Z,-39
2022-10-28T02:23:13.627Z,-39
2022-10-28T02:24:19.905Z,-37
2022-10-28T02:25:26.185Z,-39
2022-10-28T02:26:32.445Z,-39
2022-10-28T02:27:38.718Z,-40
2022-10-28T02:28:44.992Z,-39
2022-10-28T02:29:51.264Z,-37
2022-10-28T02:30:57.598Z,-39
2022-10-28T02:32:03.805Z,-39
2022-10-28T02:33:10.181Z,-38
2022-10-28T02:34:16.356Z,-40
2022-10-28T02:35:21.638Z,-39
2022-10-28T02:36:27.958Z,-39
2022-10-28T02:37:34.182Z,-38
2022-10-28T02:38:40.454Z,-39
2022-10-28T02:39:46.738Z,-40
2022-10-28T02:40:52.998Z,-39
2022-10-28T02:41:59.281Z,-39
2022-10-28T02:43:05.549Z,-39
2022-10-28T02:44:11.816Z,-40
2022-10-28T02:45:18.098Z,-40
2022-10-28T02:46:24.363Z,-39
2022-10-28T02:47:30.638Z,-40
2022-10-28T02:48:36.906Z,-39
2022-10-28T02:49:42.201Z,-40
2022-10-28T02:50:48.471Z,-40
2022-10-28T02:51:54.739Z,-40
2022-10-28T02:53:01.010Z,-38
2022-10-28T02:54:07.282Z,-39
2022-10-28T02:55:13.570Z,-40
2022-10-28T02:56:19.836Z,-39
2022-10-28T02:57:26.126Z,-39
2022-10-28T02:58:32.376Z,-39
2022-10-28T02:59:38.645Z,-37
2022-10-28T03:00:44.921Z,-40
2022-10-28T03:01:51.186Z,-39
2022-10-28T03:02:57.462Z,-40
2022-10-28T03:04:02.758Z,-40
2022-10-28T03:05:09.027Z,-40
2022-10-28T03:06:15.319Z,-40
2022-10-28T03:07:21.565Z,-40
2022-10-28T03:08:27.844Z,-40
2022-10-28T03:09:34.145Z,-40
2022-10-28T03:10:40.387Z,-39
2022-10-28T03:11:46.654Z,-39
2022-10-28T03:12:52.930Z,-39
2022-10-28T03:13:59.199Z,-40
2022-10-28T03:15:05.482Z,-40
2022-10-28T03:16:10.781Z,-40
2022-10-28T03:17:17.043Z,-39
2022-10-28T03:18:23.312Z,-40
2022-10-28T03:19:29.596Z,-39
2022-10-28T03:20:35.887Z,-40
2022-10-28T03:21:42.129Z,-39
2022-10-28T03:22:48.413Z,-40
2022-10-28T03:23:54.675Z,-39
2022-10-28T03:25:00.952Z,-39
2022-10-28T03:26:07.217Z,-39
2022-10-28T03:27:13.491Z,-40
2022-10-28T03:28:19.760Z,-39
2022-10-28T03:29:26.037Z,-40
2022-10-28T03:30:31.324Z,-40
2022-10-28T03:31:37.604Z,-39
2022-10-28T03:32:43.867Z,-40
2022-10-28T03:33:50.143Z,-40
2022-10-28T03:34:56.452Z,-40
2022-10-28T03:36:02.693Z,-40
2022-10-28T03:37:08.961Z,-39
2022-10-28T03:38:15.282Z,-40
2022-10-28T03:40:27.776Z,-41
2022-10-28T03:41:34.046Z,-39
2022-10-28T03:42:40.327Z,-40
2022-10-28T03:43:45.620Z,-39
2022-10-28T03:44:50.907Z,-40
2022-10-28T03:45:56.218Z,-40
2022-10-28T03:47:01.496Z,-40
2022-10-28T03:48:07.808Z,-39
2022-10-28T03:49:14.160Z,-40
2022-10-28T03:50:20.321Z,-40
2022-10-28T03:51:26.582Z,-39
2022-10-28T03:52:32.856Z,-40
2022-10-28T03:53:39.133Z,-40
2022-10-28T03:54:45.409Z,-39
2022-10-28T03:55:51.711Z,-39
2022-10-28T03:56:57.942Z,-40
2022-10-28T03:58:04.217Z,-40
2022-10-28T03:59:10.492Z,-40
2022-10-28T04:00:16.759Z,-40
2022-10-28T04:01:22.085Z,-40
2022-10-28T04:02:28.327Z,-40
2022-10-28T04:03:34.628Z,-41
2022-10-28T04:04:40.870Z,-39
2022-10-28T04:05:47.141Z,-39
2022-10-28T04:06:53.410Z,-40
2022-10-28T04:07:59.688Z,-40
2022-10-28T04:09:04.982Z,-38
2022-10-28T04:10:10.283Z,-40
2022-10-28T04:11:15.572Z,-39
2022-10-28T04:12:20.865Z,-39
2022-10-28T04:13:27.195Z,-40
2022-10-28T04:14:33.405Z,-40
2022-10-28T04:15:39.678Z,-39
2022-10-28T04:16:45.955Z,-40
2022-10-28T04:17:52.236Z,-40
2022-10-28T04:18:58.522Z,-40
2022-10-28T04:20:04.774Z,-41
2022-10-28T04:21:11.043Z,-40
2022-10-28T04:22:17.315Z,-40
2022-10-28T04:23:23.596Z,-39
2022-10-28T04:24:29.856Z,-40
2022-10-28T04:25:36.152Z,-40
2022-10-28T04:26:41.426Z,-41
2022-10-28T04:27:47.692Z,-40
2022-10-28T04:28:53.961Z,-40
2022-10-28T04:30:00.239Z,-40
2022-10-28T04:31:06.504Z,-40
2022-10-28T04:32:12.802Z,-40
2022-10-28T04:33:19.138Z,-40
2022-10-28T04:34:25.321Z,-39
2022-10-28T04:35:31.593Z,-39
2022-10-28T04:36:37.929Z,-40
2022-10-28T04:37:44.170Z,-40
2022-10-28T04:38:50.407Z,-40
2022-10-28T04:39:56.693Z,-40
2022-10-28T04:41:01.997Z,-40
2022-10-28T04:42:08.282Z,-39
2022-10-28T04:43:14.518Z,-40
2022-10-28T04:44:20.792Z,-40
2022-10-28T04:45:27.062Z,-40
2022-10-28T04:46:33.334Z,-40
2022-10-28T04:47:39.605Z,-40
2022-10-28T04:48:45.875Z,-40
2022-10-28T04:49:52.158Z,-41
2022-10-28T04:50:58.427Z,-41
2022-10-28T04:52:04.701Z,-40
2022-10-28T04:53:10.962Z,-40
2022-10-28T04:54:17.244Z,-41
2022-10-28T04:55:22.531Z,-41
2022-10-28T04:56:28.797Z,-40
2022-10-28T04:57:35.075Z,-40
2022-10-28T04:58:41.343Z,-41
2022-10-28T04:59:47.614Z,-40
2022-10-28T05:00:53.890Z,-40
2022-10-28T05:02:00.160Z,-40
2022-10-28T05:03:06.433Z,-40
2022-10-28T05:04:12.705Z,-40
2022-10-28T05:05:18.978Z,-41
2022-10-28T05:06:24.277Z,-40
2022-10-28T05:07:29.569Z,-40
2022-10-28T05:08:34.868Z,-40
2022-10-28T05:09:40.152Z,-41
2022-10-28T05:10:46.428Z,-43
2022-10-28T05:11:52.698Z,-40
2022-10-28T05:12:58.968Z,-40
2022-10-28T05:14:05.275Z,-40
2022-10-28T05:15:11.519Z,-40
2022-10-28T05:16:17.790Z,-40
2022-10-28T05:17:24.068Z,-40
2022-10-28T05:18:30.329Z,-40
2022-10-28T05:19:36.596Z,-40
2022-10-28T05:20:42.875Z,-43
2022-10-28T05:21:49.148Z,-40
2022-10-28T05:22:55.429Z,-40
2022-10-28T05:24:00.721Z,-40
2022-10-28T05:25:06.986Z,-43
2022-10-28T05:26:13.260Z,-40
2022-10-28T05:27:19.529Z,-39
2022-10-28T05:28:25.802Z,-40
2022-10-28T05:29:32.079Z,-41
2022-10-28T05:30:38.344Z,-40
2022-10-28T05:31:43.642Z,-42
2022-10-28T05:32:48.980Z,-40
2022-10-28T05:33:55.203Z,-40
2022-10-28T05:35:00.509Z,-41
2022-10-28T05:36:05.802Z,-40
2022-10-28T05:37:12.063Z,-40
2022-10-28T05:38:18.336Z,-40
2022-10-28T05:39:24.609Z,-40
2022-10-28T05:40:30.890Z,-40
2022-10-28T05:41:37.158Z,-40
2022-10-28T05:42:43.433Z,-40
2022-10-28T05:43:49.696Z,-40
2022-10-28T05:44:55.970Z,-41
2022-10-28T05:46:02.242Z,-40
2022-10-28T05:47:08.512Z,-40
2022-10-28T05:48:14.786Z,-40
2022-10-28T05:49:21.060Z,-40
2022-10-28T05:50:26.347Z,-41
2022-10-28T05:51:32.620Z,-41
2022-10-28T05:52:38.896Z,-42
2022-10-28T05:53:45.170Z,-40
2022-10-28T05:54:51.456Z,-40
2022-10-28T05:55:57.712Z,-41
2022-10-28T05:57:03.977Z,-40
2022-10-28T05:58:09.280Z,-41
2022-10-28T05:59:14.594Z,-40
2022-10-28T06:00:19.875Z,-41
2022-10-28T06:01:25.156Z,-41
2022-10-28T06:02:31.428Z,-37
2022-10-28T06:03:37.701Z,-41
2022-10-28T06:04:44.011Z,-41
2022-10-28T06:05:50.247Z,-40
2022-10-28T06:06:56.578Z,-40
2022-10-28T06:08:02.860Z,-40
2022-10-28T06:09:09.086Z,-42
2022-10-28T06:10:15.336Z,-40
2022-10-28T06:11:20.099Z,-40
2022-10-28T06:12:26.354Z,-41
2022-10-28T06:13:32.623Z,-41
2022-10-28T06:14:38.890Z,-40
2022-10-28T06:15:44.185Z,-40
2022-10-28T06:16:50.482Z,-40
2022-10-28T06:17:56.727Z,-40
2022-10-28T06:19:02.998Z,-42
2022-10-28T06:20:09.277Z,-41
2022-10-28T06:21:15.602Z,-40
2022-10-28T06:22:21.823Z,-41
2022-10-28T06:23:27.129Z,-40
2022-10-28T06:24:32.410Z,-40
2022-10-28T06:25:38.678Z,-36
2022-10-28T06:26:44.999Z,-40
2022-10-28T06:27:50.256Z,-40
2022-10-28T06:28:55.548Z,-40
2022-10-28T06:30:01.849Z,-39
2022-10-28T06:31:08.093Z,-40
2022-10-28T06:32:14.360Z,-40
2022-10-28T06:33:20.633Z,-39
2022-10-28T06:34:26.920Z,-40
2022-10-28T06:35:33.246Z,-40
2022-10-28T06:36:39.483Z,-40
2022-10-28T06:37:45.778Z,-40
2022-10-28T06:38:52.013Z,-40
2022-10-28T06:39:58.279Z,-40
2022-10-28T06:41:04.562Z,-41
2022-10-28T06:42:10.825Z,-40
2022-10-28T06:43:17.115Z,-39
2022-10-28T06:44:22.383Z,-38
2022-10-28T06:45:28.659Z,-40
2022-10-28T06:46:36.482Z,-40
2022-10-28T06:47:42.720Z,-40
2022-10-28T06:48:49.060Z,-43
2022-10-28T06:49:55.264Z,-40
2022-10-28T06:51:00.570Z,-40
2022-10-28T06:52:05.954Z,-40
2022-10-28T06:53:11.153Z,-40
2022-10-28T06:54:16.442Z,-40
2022-10-28T06:55:22.720Z,-40
2022-10-28T06:56:29.004Z,-40
2022-10-28T06:57:34.286Z,-41
2022-10-28T06:58:40.563Z,-40
2022-10-28T06:59:46.827Z,-40
2022-10-28T07:00:53.110Z,-40
2022-10-28T07:01:59.377Z,-40
2022-10-28T07:03:05.647Z,-40
2022-10-28T07:04:11.924Z,-40
2022-10-28T07:05:18.200Z,-40
2022-10-28T07:06:24.472Z,-40
2022-10-28T07:07:30.744Z,-40
2022-10-28T07:08:37.018Z,-40
2022-10-28T07:09:43.285Z,-40
2022-10-28T07:10:49.572Z,-39
2022-10-28T07:11:54.852Z,-41
2022-10-28T07:13:01.144Z,-40
2022-10-28T07:14:07.459Z,-40
2022-10-28T07:15:13.675Z,-39
2022-10-28T07:16:18.968Z,-40
2022-10-28T07:17:24.257Z,-39
2022-10-28T07:18:29.571Z,-40
2022-10-28T07:19:34.878Z,-41
2022-10-28T07:20:41.120Z,-40
2022-10-28T07:21:47.424Z,-40
2022-10-28T07:22:53.666Z,-40
2022-10-28T07:23:59.948Z,-40
2022-10-28T07:25:06.241Z,-40
2022-10-28T07:26:12.489Z,-39
2022-10-28T07:27:18.766Z,-38
2022-10-28T07:28:25.032Z,-38
2022-10-28T07:29:31.302Z,-40
2022-10-28T07:31:43.910Z,-38
2022-10-28T07:32:50.131Z,-40
2022-10-28T07:33:55.414Z,-38
2022-10-28T07:35:01.687Z,-38
2022-10-28T07:36:07.966Z,-39
2022-10-28T07:37:14.239Z,-39
2022-10-28T07:38:20.507Z,-39
2022-10-28T07:39:26.775Z,-40
2022-10-28T07:40:33.048Z,-38
2022-10-28T07:41:39.365Z,-40
2022-10-28T07:42:44.624Z,-40
2022-10-28T07:43:49.924Z,-39
2022-10-28T07:44:56.199Z,-39
2022-10-28T07:46:02.489Z,-39
2022-10-28T07:47:07.762Z,-39
2022-10-28T07:48:13.061Z,-39
2022-10-28T07:49:19.310Z,-40
2022-10-28T07:50:25.599Z,-38
2022-10-28T07:51:31.856Z,-39
2022-10-28T07:52:38.194Z,-40
2022-10-28T07:53:44.403Z,-39
2022-10-28T07:54:50.678Z,-38
2022-10-28T07:55:56.947Z,-39
2022-10-28T07:57:03.216Z,-40
2022-10-28T07:58:09.494Z,-38
2022-10-28T07:59:15.802Z,-38
2022-10-28T08:00:22.155Z,-38
2022-10-28T08:01:28.348Z,-37
2022-10-28T08:02:33.593Z,-38
2022-10-28T08:03:39.906Z,-38
2022-10-28T08:04:46.130Z,-38
2022-10-28T08:05:52.397Z,-37
2022-10-28T08:06:58.666Z,-39
2022-10-28T08:08:04.933Z,-38
2022-10-28T08:09:11.205Z,-37
2022-10-28T08:10:16.504Z,-37
2022-10-28T08:11:21.793Z,-37
2022-10-28T08:12:27.119Z,-38
2022-10-28T08:13:32.420Z,-37
2022-10-28T08:14:38.643Z,-37
2022-10-28T08:15:44.912Z,-38
2022-10-28T08:16:51.212Z,-37
2022-10-28T08:17:57.472Z,-38
2022-10-28T08:19:03.726Z,-37
2022-10-28T08:20:10.003Z,-37
2022-10-28T08:21:16.308Z,-37
2022-10-28T08:22:22.543Z,-38
2022-10-28T08:23:28.816Z,-38
2022-10-28T08:24:35.103Z,-37
2022-10-28T08:25:41.364Z,-37
2022-10-28T08:26:47.624Z,-37
2022-10-28T08:27:52.914Z,-37
2022-10-28T08:28:59.196Z,-38
2022-10-28T08:30:05.463Z,-37
2022-10-28T08:31:11.750Z,-37
2022-10-28T08:32:18.002Z,-37
2022-10-28T08:33:24.277Z,-39
2022-10-28T08:34:30.552Z,-39
2022-10-28T08:35:35.907Z,-37
2022-10-28T08:36:41.141Z,-37
2022-10-28T08:37:47.416Z,-37
2022-10-28T08:38:52.701Z,-37
2022-10-28T08:39:57.996Z,-37
2022-10-28T08:41:04.273Z,-37
2022-10-28T08:42:10.542Z,-37
2022-10-28T08:43:16.812Z,-37
2022-10-28T08:44:23.100Z,-35
2022-10-28T08:45:29.365Z,-37
2022-10-28T08:46:35.661Z,-37
2022-10-28T08:47:41.910Z,-36
2022-10-28T08:48:48.178Z,-34
2022-10-28T08:49:54.478Z,-36
2022-10-28T08:51:00.722Z,-35
2022-10-28T08:52:07.004Z,-36
2022-10-28T08:53:13.270Z,-37
2022-10-28T08:54:18.556Z,-36
2022-10-28T08:55:24.824Z,-37
2022-10-28T08:56:31.099Z,-37
2022-10-28T08:57:37.370Z,-35
2022-10-28T08:58:43.643Z,-36
2022-10-28T08:59:49.949Z,-35
2022-10-28T09:00:56.185Z,-36
2022-10-28T09:02:01.489Z,-35
2022-10-28T09:03:06.799Z,-35
2022-10-28T09:04:12.109Z,-35
2022-10-28T09:05:17.363Z,-35
2022-10-28T09:06:23.637Z,-35
2022-10-28T09:07:29.909Z,-36
2022-10-28T09:08:36.194Z,-37
2022-10-28T09:09:42.466Z,-34
2022-10-28T09:10:48.723Z,-34
2022-10-28T09:11:55.001Z,-35
2022-10-28T09:13:01.268Z,-37
2022-10-28T09:14:07.563Z,-34
2022-10-28T09:15:13.816Z,-35
2022-10-28T09:16:20.102Z,-34
2022-10-28T09:17:26.379Z,-36
2022-10-28T09:18:32.632Z,-34
2022-10-28T09:19:37.924Z,-35
2022-10-28T09:20:44.189Z,-35
2022-10-28T09:21:50.483Z,-34
2022-10-28T09:22:56.761Z,-34
2022-10-28T09:24:03.027Z,-35
2022-10-28T09:25:09.283Z,-34
2022-10-28T09:26:15.565Z,-32
2022-10-28T09:27:20.845Z,-34
2022-10-28T09:28:26.139Z,-33
2022-10-28T09:29:32.408Z,-34
2022-10-28T09:30:37.706Z,-33
2022-10-28T09:31:43.005Z,-33
2022-10-28T09:32:49.272Z,-34
2022-10-28T09:33:55.550Z,-34
2022-10-28T09:35:01.819Z,-32
2022-10-28T09:36:08.096Z,-32
2022-10-28T09:37:14.368Z,-32
2022-10-28T09:38:20.633Z,-34
2022-10-28T09:39:26.911Z,-33
2022-10-28T09:40:33.171Z,-33
2022-10-28T09:41:39.468Z,-33
2022-10-28T09:42:45.729Z,-33
2022-10-28T09:43:51.999Z,-33
2022-10-28T09:44:58.343Z,-32
2022-10-28T09:46:03.547Z,-32
2022-10-28T09:47:09.820Z,-32
2022-10-28T09:48:16.116Z,-32
2022-10-28T09:49:22.366Z,-31
2022-10-28T09:50:28.635Z,-32
2022-10-28T09:51:34.915Z,-31
2022-10-28T09:52:41.186Z,-31
2022-10-28T09:53:46.487Z,-31
2022-10-28T09:54:51.769Z,-31
2022-10-28T09:55:57.108Z,-33
2022-10-28T09:57:02.407Z,-32
2022-10-28T09:58:08.650Z,-31
2022-10-28T09:59:14.932Z,-31
2022-10-28T10:00:21.173Z,-31
2022-10-28T10:01:27.459Z,-31
2022-10-28T10:02:33.720Z,-31
2022-10-28T10:03:40.016Z,-32
2022-10-28T10:04:46.288Z,-29
2022-10-28T10:05:52.543Z,-31
2022-10-28T10:06:58.803Z,-30
2022-10-28T10:08:05.099Z,-30
2022-10-28T10:09:11.371Z,-30
2022-10-28T10:10:17.622Z,-30
2022-10-28T10:11:22.914Z,-31
2022-10-28T10:12:29.179Z,-31
2022-10-28T10:13:35.473Z,-31
2022-10-28T10:14:41.726Z,-30
2022-10-28T10:15:48.012Z,-31
2022-10-28T10:16:54.268Z,-30
2022-10-28T10:18:00.539Z,-28
2022-10-28T10:19:06.849Z,-29
2022-10-28T10:20:13.085Z,-31
2022-10-28T10:21:19.355Z,-30
2022-10-28T10:22:25.629Z,-31
2022-10-28T10:23:31.934Z,-29
2022-10-28T10:24:38.198Z,-30
2022-10-28T10:25:43.488Z,-28
2022-10-28T10:26:48.766Z,-29
2022-10-28T10:27:54.050Z,-29
2022-10-28T10:29:00.345Z,-28
2022-10-28T10:30:05.619Z,-30
2022-10-28T10:31:10.909Z,-28
2022-10-28T10:32:17.191Z,-29
2022-10-28T10:33:23.451Z,-29
2022-10-28T10:34:29.722Z,-28
2022-10-28T10:35:36.006Z,-28
2022-10-28T10:36:42.274Z,-28
2022-10-28T10:37:48.552Z,-28
2022-10-28T10:38:53.861Z,-29
2022-10-28T10:40:00.124Z,-28
2022-10-28T10:41:06.401Z,-28
2022-10-28T10:42:12.647Z,-28
2022-10-28T10:43:18.937Z,-28
2022-10-28T10:44:25.192Z,-28
2022-10-28T10:45:31.465Z,-28
2022-10-28T10:46:37.804Z,-28
2022-10-28T10:47:44.024Z,-28
2022-10-28T10:48:50.289Z,-28
2022-10-28T10:49:56.558Z,-28
2022-10-28T10:51:02.825Z,-28
2022-10-28T10:52:09.102Z,-28
2022-10-28T10:53:14.385Z,-28
2022-10-28T10:54:20.666Z,-27
2022-10-28T10:55:26.938Z,-27
2022-10-28T10:56:33.204Z,-28
2022-10-28T10:57:39.472Z,-26
2022-10-28T10:58:45.780Z,-27
2022-10-28T10:59:52.048Z,-28
2022-10-28T11:00:58.300Z,-27
2022-10-28T11:02:04.576Z,-26
2022-10-28T11:03:09.859Z,-27
2022-10-28T11:04:15.160Z,-25
2022-10-28T11:05:20.468Z,-28
2022-10-28T11:06:25.735Z,-25
2022-10-28T11:07:32.011Z,-27
2022-10-28T11:08:38.278Z,-25
2022-10-28T11:09:44.547Z,-25
2022-10-28T11:10:50.836Z,-25
2022-10-28T11:11:57.093Z,-25
2022-10-28T11:13:03.383Z,-25
2022-10-28T11:14:09.642Z,-24
2022-10-28T11:15:15.911Z,-26
2022-10-28T11:16:22.194Z,-25
2022-10-28T11:17:28.455Z,-24
2022-10-28T11:18:34.735Z,-24
2022-10-28T11:19:40.999Z,-23
2022-10-28T11:20:46.305Z,-24
2022-10-28T11:21:52.572Z,-23
2022-10-28T11:22:58.837Z,-22
2022-10-28T11:24:05.112Z,-22
2022-10-28T11:25:11.376Z,-22
2022-10-28T11:26:17.645Z,-23
2022-10-28T11:27:23.924Z,-22
2022-10-28T11:28:29.240Z,-22
2022-10-28T11:29:34.543Z,-23
2022-10-28T11:30:39.844Z,-21
2022-10-28T11:31:45.094Z,-21
2022-10-28T11:32:51.372Z,-21
2022-10-28T11:33:57.640Z,-21
2022-10-28T11:35:03.920Z,-20
2022-10-28T11:36:10.190Z,-21
2022-10-28T11:37:16.453Z,-20
2022-10-28T11:38:22.765Z,-22
2022-10-28T11:39:29.002Z,-20
2022-10-28T11:40:35.304Z,-20
2022-10-28T11:41:41.609Z,-21
2022-10-28T11:42:47.827Z,-18
2022-10-28T11:43:54.097Z,-18
2022-10-28T11:45:00.359Z,-19
2022-10-28T11:46:05.653Z,-19
2022-10-28T11:47:11.922Z,-19
2022-10-28T11:48:18.199Z,-18
2022-10-28T11:49:24.465Z,-19
2022-10-28T11:50:30.747Z,-18
2022-10-28T11:51:37.010Z,-18
2022-10-28T11:52:43.287Z,-19
2022-10-28T11:53:49.556Z,-18
2022-10-28T11:54:54.866Z,-19
2022-10-28T11:56:00.142Z,-18
2022-10-28T11:57:06.412Z,-18
2022-10-28T11:58:12.722Z,-18
2022-10-28T11:59:17.980Z,-18
2022-10-28T12:00:23.275Z,-18
2022-10-28T12:01:29.547Z,-18
2022-10-28T12:02:35.835Z,-18
2022-10-28T12:03:42.098Z,-18
2022-10-28T12:04:48.358Z,-18
2022-10-28T12:05:54.686Z,-18
2022-10-28T12:07:00.899Z,-18
2022-10-28T12:08:07.168Z,-18
2022-10-28T12:09:13.444Z,-17
2022-10-28T12:10:19.724Z,-17
2022-10-28T12:11:26.009Z,-17
2022-10-28T12:12:32.267Z,-16
2022-10-28T12:13:38.534Z,-17
2022-10-28T12:14:43.823Z,-16
2022-10-28T12:15:50.094Z,-17
2022-10-28T12:16:56.364Z,-15
2022-10-28T12:18:02.655Z,-16
2022-10-28T12:19:08.911Z,-16
2022-10-28T12:20:15.187Z,-16
2022-10-28T12:21:21.452Z,-16
2022-10-28T12:22:27.763Z,-15
2022-10-28T12:23:34.001Z,-17
2022-10-28T12:24:40.272Z,-18
2022-10-28T12:25:46.571Z,-15
2022-10-28T12:26:52.841Z,-16
2022-10-28T12:27:59.085Z,-14
2022-10-28T12:29:04.397Z,-15
2022-10-28T12:30:10.677Z,-14
2022-10-28T12:31:16.920Z,-15
2022-10-28T12:32:23.190Z,-15
2022-10-28T12:33:29.471Z,-15
2022-10-28T12:34:34.768Z,-13
2022-10-28T12:35:40.059Z,-14
2022-10-28T12:36:45.427Z,-14
2022-10-28T12:37:50.641Z,-13
2022-10-28T12:38:56.935Z,-14
2022-10-28T12:40:03.260Z,-14
2022-10-28T12:41:09.450Z,-13
2022-10-28T12:42:15.722Z,-13
2022-10-28T12:43:22.004Z,-15
2022-10-28T12:45:34.554Z,-12
2022-10-28T12:46:40.816Z,-12
2022-10-28T12:47:47.100Z,-15
2022-10-28T12:48:53.360Z,-12
2022-10-28T12:49:59.645Z,-12
2022-10-28T12:51:05.899Z,-12
2022-10-28T12:52:11.187Z,-12
2022-10-28T12:53:17.475Z,-12
2022-10-28T12:54:23.732Z,-12
2022-10-28T12:55:30.005Z,-11
2022-10-28T12:56:36.316Z,-12
2022-10-28T12:57:42.604Z,-12
2022-10-28T12:58:48.822Z,-12
2022-10-28T12:59:55.094Z,-12
2022-10-28T13:01:00.467Z,-13
2022-10-28T13:02:06.688Z,-12
2022-10-28T13:03:11.957Z,-14
2022-10-28T13:04:17.252Z,-14
2022-10-28T13:05:22.550Z,-14
2022-10-28T13:06:28.813Z,-14
2022-10-28T13:07:35.085Z,-13
2022-10-28T13:08:41.413Z,-13
2022-10-28T13:09:47.639Z,-15
2022-10-28T13:10:53.904Z,-13
2022-10-28T13:12:00.181Z,-14
2022-10-28T13:13:06.443Z,-14
2022-10-28T13:14:12.717Z,-14
2022-10-28T13:15:18.996Z,-13
2022-10-28T13:16:25.257Z,-14
2022-10-28T13:17:31.549Z,-13
2022-10-28T13:18:37.826Z,-13
2022-10-28T13:19:43.097Z,-14
2022-10-28T13:20:49.372Z,-12
2022-10-28T13:21:55.640Z,-13
2022-10-28T13:23:01.907Z,-13
2022-10-28T13:24:08.183Z,-14
2022-10-28T13:25:14.469Z,-14
2022-10-28T13:26:20.745Z,-14
2022-10-28T13:27:26.030Z,-12
2022-10-28T13:28:31.324Z,-14
2022-10-28T13:29:36.636Z,-13
2022-10-28T13:30:41.915Z,-14
2022-10-28T13:31:48.182Z,-13
2022-10-28T13:32:54.443Z,-13
2022-10-28T13:34:00.749Z,-13
2022-10-28T13:35:06.988Z,-14
2022-10-28T13:36:13.268Z,-14
2022-10-28T13:37:19.537Z,-14
2022-10-28T13:38:25.824Z,-14
2022-10-28T13:39:32.075Z,-14
2022-10-28T13:40:38.348Z,-13
2022-10-28T13:41:44.630Z,-13
2022-10-28T13:42:50.913Z,-13
2022-10-28T13:43:57.160Z,-14
2022-10-28T13:45:02.459Z,-12
2022-10-28T13:46:08.755Z,-12
2022-10-28T13:47:15.000Z,-13
2022-10-28T13:48:21.266Z,-12
2022-10-28T13:49:27.542Z,-12
2022-10-28T13:51:40.081Z,-12
2022-10-28T13:52:46.379Z,-12
2022-10-28T13:53:52.629Z,-12
2022-10-28T13:54:58.896Z,-11
2022-10-28T13:56:05.170Z,-12
2022-10-28T13:57:11.435Z,-13
2022-10-28T13:58:17.713Z,-12
2022-10-28T13:59:23.059Z,-13
2022-10-28T14:00:29.275Z,-13
2022-10-28T14:01:35.561Z,-13
2022-10-28T14:02:41.836Z,-13
2022-10-28T14:03:48.087Z,-13
2022-10-28T14:04:54.369Z,-13
2022-10-28T14:06:00.668Z,-13
2022-10-28T14:08:13.219Z,-12
2022-10-28T14:09:19.456Z,-13
2022-10-28T14:10:25.766Z,-14
2022-10-28T14:11:31.997Z,-12
2022-10-28T14:12:38.279Z,-14
2022-10-28T14:13:43.578Z,-14
2022-10-28T14:14:49.821Z,-14
2022-10-28T14:15:56.095Z,-14
2022-10-28T14:17:02.393Z,-15
2022-10-28T14:18:08.649Z,-15
2022-10-28T14:19:14.913Z,-15
2022-10-28T14:20:20.208Z,-14
2022-10-28T14:21:26.478Z,-15
2022-10-28T14:22:32.751Z,-17
2022-10-28T14:24:45.334Z,-15
2022-10-28T14:25:51.572Z,-15
2022-10-28T14:26:57.863Z,-15
2022-10-28T14:28:04.133Z,-16
2022-10-28T14:29:10.388Z,-13
2022-10-28T14:30:16.692Z,-16
2022-10-28T14:31:22.924Z,-16
2022-10-28T14:32:29.204Z,-15
2022-10-28T14:33:35.470Z,-16
2022-10-28T14:34:40.763Z,-15
2022-10-28T14:35:47.065Z,-15
2022-10-28T14:36:53.331Z,-16
2022-10-28T14:37:59.627Z,-15
2022-10-28T14:39:05.919Z,-15
2022-10-28T14:41:18.436Z,-15
2022-10-28T14:42:24.661Z,-15
2022-10-28T14:43:30.930Z,-15
2022-10-28T14:44:37.208Z,-16
2022-10-28T14:45:43.480Z,-18
2022-10-28T14:46:49.747Z,-16
2022-10-28T14:47:56.024Z,-17
2022-10-28T14:49:01.318Z,-17
2022-10-28T14:50:07.585Z,-16
2022-10-28T14:51:13.870Z,-16
2022-10-28T14:52:20.127Z,-18
2022-10-28T14:53:26.398Z,-15
2022-10-28T14:54:32.691Z,-17
2022-10-28T14:55:38.938Z,-15
2022-10-28T14:56:45.372Z,-17
2022-10-28T14:57:51.499Z,-16
2022-10-28T14:58:57.776Z,-16
2022-10-28T15:00:04.029Z,-17
2022-10-28T15:01:10.300Z,-16
2022-10-28T15:02:16.637Z,-18
2022-10-28T15:03:21.919Z,-16
2022-10-28T15:04:28.129Z,-16
2022-10-28T15:05:34.407Z,-17
2022-10-28T15:06:40.681Z,-18
2022-10-28T15:07:47.013Z,-16
2022-10-28T15:08:53.220Z,-15
2022-10-28T15:09:59.519Z,-16
2022-10-28T15:11:05.849Z,-18
2022-10-28T15:12:12.077Z,-16
2022-10-28T15:13:18.309Z,-16
2022-10-28T15:14:24.576Z,-16
2022-10-28T15:15:30.851Z,-16
2022-10-28T15:16:37.132Z,-16
2022-10-28T15:17:42.437Z,-16